createdAt,value
2023-10-10T00:22:28.732Z,29.48
2023-10-10T00:52:30.121Z,28.52
2023-10-10T01:22:31.527Z,29.08
2023-10-10T02:38:00.106Z,28.97
2023-10-10T03:08:01.242Z,27.63
2023-10-10T03:38:02.475Z,25.83
2023-10-10T04:08:04.796Z,26.08
2023-10-10T04:38:06.099Z,27.08
2023-10-10T05:08:07.502Z,27.98
2023-10-10T05:38:09.827Z,28.91
2023-10-10T06:08:11.247Z,32.70
2023-10-10T06:38:16.375Z,31.21
2023-10-10T07:08:14.953Z,26.56
2023-10-10T07:38:16.367Z,25.94
2023-10-10T08:08:17.827Z,23.79
2023-10-10T08:38:23.202Z,22.22
2023-10-10T09:08:24.780Z,19.25
2023-10-10T09:38:26.344Z,16.12
2023-10-10T10:08:27.799Z,13.65
2023-10-10T10:38:29.376Z,9.67
2023-10-10T11:08:36.868Z,8.23
2023-10-10T11:38:32.144Z,8.44
2023-10-10T12:08:32.714Z,7.77
2023-10-10T12:38:32.983Z,4.78
2023-10-10T13:08:33.339Z,3.06
2023-10-10T13:38:33.573Z,2.80
2023-10-10T14:08:39.494Z,2.79
2023-10-10T14:38:41.193Z,2.97
2023-10-10T15:08:42.862Z,3.80
2023-10-10T15:38:44.726Z,4.03
2023-10-10T16:08:46.444Z,4.19
2023-10-10T17:02:13.447Z,4.89
2023-10-10T17:32:14.759Z,5.28
2023-10-10T18:02:16.204Z,5.18
2023-10-10T18:32:17.707Z,5.51
2023-10-10T19:02:19.000Z,5.35
2023-10-10T19:32:20.085Z,6.12
2023-10-10T20:02:21.841Z,6.65
2023-10-10T20:32:23.328Z,6.93
2023-10-10T21:02:25.067Z,6.79
2023-10-10T21:32:26.828Z,6.91
2023-10-10T22:02:28.422Z,6.87
2023-10-10T22:32:29.839Z,6.89
2023-10-10T23:02:34.083Z,7.55
2023-10-10T23:32:34.417Z,8.93
